Aérodrome :
LOGIN :

S'inscrire | Disclaimer

   EN    FR    IT 

 










Légende :    VFR   VFR Marginal   IFR   IFR Intensif   IFR Très Intensif
Visi : 
Plafond : 
>= 8 km
>= 3000ft
5 à 8 km
1000 à 3000 ft
1500m à 5 km
500 à 1000 ft
800 à 1500m
200 à 500 ft
< 800m
< 200 ft
Symboles :   Orages  Brouillard  Fortes neiges  Fortes précipitations  Vent > 20 kt
SIGMETs :   Divers  Orages  Givrage  Turbulence  Onde Orograph.  Cendres Volcan.






- Altitude de l'aérodrome : 306 ft
- Code IATA : EMA


EGNX - Nottingham East Midlands

DERNIER METAR :
  • 230650Z 19007KT 7000 -RA FEW017 BKN029 14/13 Q0999

METARs EXPIRÉS :
  • 230620Z 18005KT 9999 BKN033 14/13 Q0999
  • 230550Z 18007KT 9999 FEW007 BKN034 14/13 Q0999
  • 230520Z 18009KT 9999 FEW007 SCT023 15/13 Q0999
  • 230450Z 17009KT 9000 -RA FEW014 SCT023 15/13 Q1000

TAF TAF EGNX
Valide du 23 à 06h jusqu'au 24 à 06h UTC


230501Z 2306/2406 20010KT 9999 SCT025
TEMPO 2306/2318 6000 RA BKN010
PROB30
TEMPO 2306/2313 3000 +RA BKN008
BECMG 2312/2315 34005KT
ATIS : +44 1332 852 852 (ext 3201)



MET'MAP, la Météo Aéronautique d'un coup d'oeil ! - Copyright ORBIFLY Décembre 2007 - Disclaimer

ORBIFLY MET'MAP TEAM :

Programmation & Développement : Alexandra Zaïnal
Sur une idée originale de : Baudouin d'Aumeries
Assistance à la programmation : Marc-Olivier Méhu
Soutien technique & logistique : Manuel Goepfert

Contact : metmap@orbifly.com




SOURCES & CREDITS :

   NOAA